默认 日期 大小 文件数 浏览量 最新下载 xml
super 8磁力链接相关资源由用户搜索指令自动获取,结果来源于网络,本站不存储任何资料,亦不承担任何责任,请于24小时内删除,搜索到2698个磁力,用时25ms。
    {"3DMGAME-Super.Pilot.v0.8.0-P2P.rar": 206597256}
创建时间: 2022-08-02 19:25:39 大小:197.03 MB 文件数量:1 热度:3 最近下载:2025-02-16 22:56:01
    {"tk-dragon-ball-super-056-lat-jap-subs-1080p-399-eb-8-bf_meta.xml": 724, "[TK] Dragon ball Super - 056 [Lat-Jap+Subs] [1080p] [399EB8BF].mkv": 1220983906, "tk-dragon-ball-super-056-lat-jap-subs-1080p-399-eb-8-bf_meta.sqlite": 20480}
创建时间: 2022-08-02 20:20:09 大小:1.14 GB 文件数量:3 热度:16 最近下载:2025-09-05 02:19:03
    ... .jpg": 8609, "tk-dragon-ball-super-056-lat-jap-subs-1080p ... -399-eb-8-bf_meta.xml": 724, "[TK] Dragon ball Super - 056 [Lat ... ].mkv": 1220983906, "[TK] Dragon ball Super - 056 [Lat-Jap+Subs] [1080p ... ].mp4": 138674985, "tk-dragon-ball-super-056-lat-jap-subs-1080p ...
创建时间: 2022-08-04 06:12:21 大小:1.27 GB 文件数量:5 热度:17 最近下载:2025-08-03 11:33:10
    ... .jpg": 7126, "tk-dragon-ball-super-026-lat-jap-subs-1080p ... -06-f-8-ce-57_meta.xml": 724, "[TK] Dragon ball Super - 026 ... ].mkv": 1359288822, "[TK] Dragon ball Super - 026 [Lat-Jap+Subs] [1080p ... ].mp4": 137515223, "tk-dragon-ball-super-026-lat-jap-subs-1080p ...
创建时间: 2022-08-04 16:20:18 大小:1.39 GB 文件数量:5 热度:10 最近下载:2025-04-30 09:24:03
    {"Super Mario Land 2 DX (Hack v1.8.1).zip": 375753, "super-mario-land-2-dx-hack-v-1.8.1_meta.xml": 874, "super-mario-land-2-dx-hack-v-1.8.1_meta.sqlite": 20480}
创建时间: 2022-08-05 16:29:47 大小:387.8 KB 文件数量:3 热度:6 最近下载:2025-02-10 02:52:03
    {"tk-dragon-ball-super-054-lat-jap-subs-1080p-c-907-dbd-8_meta.xml": 722, "[TK] Dragon ball Super - 054 [Lat-Jap+Subs] [1080p] [C907DBD8].mkv": 1611178823, "tk-dragon-ball-super-054-lat-jap-subs-1080p-c-907-dbd-8_meta.sqlite": 20480}
创建时间: 2022-08-06 16:58:08 大小:1.5 GB 文件数量:3 热度:14 最近下载:2025-08-01 07:20:06
    ... .jpg": 8605, "tk-dragon-ball-super-054-lat-jap-subs-1080p ... .xml": 722, "[TK] Dragon ball Super - 054 [Lat-Jap+Subs] [1080p ... ].mkv": 1611178823, "[TK] Dragon ball Super - 054 [Lat-Jap+Subs] [1080p ... ].mp4": 138123100, "tk-dragon-ball-super-054-lat-jap-subs-1080p ...
创建时间: 2022-08-08 20:31:18 大小:1.63 GB 文件数量:5 热度:14 最近下载:2025-09-14 15:40:03
    {"tk-dragon-ball-super-026-lat-jap-subs-1080p-06-f-8-ce-57_meta.xml": 724, "[TK] Dragon ball Super - 026 [Lat-Jap+Subs] [1080p] [06F8CE57].mkv": 1359288822, "tk-dragon-ball-super-026-lat-jap-subs-1080p-06-f-8-ce-57_meta.sqlite": 20480}
创建时间: 2022-08-14 06:23:43 大小:1.27 GB 文件数量:3 热度:7 最近下载:2025-04-26 12:40:01
    ... 11884, "tk-dragon-ball-super-075-lat-jap-subs-1080p ... 8-d-109-f-22_meta.xml": 724, "[TK] Dragon ball Super ... ": 1048667107, "[TK] Dragon ball Super - 075 [Lat-Jap+Subs] ... 133205019, "tk-dragon-ball-super-075-lat-jap-subs-1080p ... -8-d-109-f-22_meta ...
创建时间: 2022-08-15 15:19:47 大小:1.1 GB 文件数量:5 热度:9 最近下载:2025-08-25 12:58:01
    {"SHODN098.20150313-ALI213.rar": 58281955, "������NETSHOW.exe": 1058816}
创建时间: 2022-08-16 22:07:18 大小:56.59 MB 文件数量:2 热度:13 最近下载:2025-09-21 06:50:03
    {"tk-dragon-ball-super-075-lat-jap-subs-1080p-8-d-109-f-22_meta.xml": 724, "[TK] Dragon ball Super - 075 [Lat-Jap+Subs] [1080p] [8D109F22].mkv": 1048667107, "tk-dragon-ball-super-075-lat-jap-subs-1080p-8-d-109-f-22_meta.sqlite": 20480}
创建时间: 2022-08-17 22:48:11 大小:1000.11 MB 文件数量:3 热度:8 最近下载:2025-08-10 14:30:02
    {"Readme.txt": 449, "dvdfab12_12082.exe": 241156848, "dvdfab12_x64_12082.exe": 252850733, "0. Websites you may like": {"1. Get Free Premium Accounts Daily On Our Discord Server!.txt": 1347, "3. FreeCoursesOnline.me Download Udacity, Masterclass, Lynda, ...
创建时间: 2022-08-19 17:50:00 大小:471.13 MB 文件数量:8 热度:3 最近下载:2025-02-21 23:05:02
    {"2012 SUPER GT Round 8 Motegi 121028.mp4": 2508133986, "2012 SUPER GT Round 8 Motegi Qualify 121027.mp4": 1612979086}
创建时间: 2022-08-26 05:11:51 大小:3.84 GB 文件数量:2 热度:3 最近下载:2025-01-10 04:45:02
    {"Super.Bunny.Man.v0.9.0.8.rar": 177402152}
创建时间: 2022-09-02 21:29:40 大小:169.18 MB 文件数量:1 热度:3 最近下载:2025-01-03 04:59:09
    ... 8 - Booklet_djvu.xml": 55590, "Super Audio Collection Vol 8 - Booklet_hocr.html": 117901, "linn-super ... 8 - Booklet_scandata.xml": 2165, "linn-super-audio-collection-vol.-8-flac_meta.sqlite": 49152, "Super ...
创建时间: 2022-09-07 19:29:58 大小:1.57 GB 文件数量:55 热度:4 最近下载:2025-03-01 21:11:03
    {"18P2P.url": 192, "DVD1SKY-084.jpg": 158600, "SKY-084.XviD.avi": 733763584, "DVD1SKY-084-A.jpg": 2237865, "�ޱ���.jpg": 38763, "KTzone Փ��.url": 194, "[email protected]": 94, "446099@by_fdzone.org.url": 153, "0_P.R�՝h�㘷��.url": 154, "PLus - Powered by ...
创建时间: 2022-09-17 09:58:50 大小:702.1 MB 文件数量:21 热度:5 最近下载:2025-09-18 17:42:10
    ... Sexy Celebrities Set-8 (2).png": 2110828, "Super Hot Bikini ... Sexy Celebrities Set-8 (8).jpg": 79003, "Super Hot Bikini Pictures ... Sexy Celebrities Set-8 (11).jpg": 268108, "Super Hot Bikini ... Sexy Celebrities Set-8 (29).png": 1683933, "Super Hot Bikini ...
创建时间: 2022-09-17 19:38:34 大小:5.66 MB 文件数量:31 热度:15 最近下载:2025-01-22 05:07:02
    ... ��Gold Angel Vol.8 Super Erotic Girl.avi": 733763584, "SexInSex ...
创建时间: 2022-10-23 15:23:24 大小:700.75 MB 文件数量:9 热度:5 最近下载:2025-09-18 17:42:09
    {"SuperMp3Download-3.2.5.8.Setup.exe": 3972755, "super.mp3.download.3.2.5.8-patch.exe": 759296}
创建时间: 2022-11-15 19:01:04 大小:4.51 MB 文件数量:2 热度:2 最近下载:2025-02-09 08:43:01
    {"01.jpg": 291594, "02.jpg": 441977, "03.jpg": 458284, "04.jpg": 529116, "05.jpg": 465092, "06.jpg": 370889, "07.jpg": 483138, "08.jpg": 438529, "09.jpg": 443634, "10.jpg": 481595, "11.jpg": 469408, "12.jpg": 500968, "13.jpg": 481072, "14.jpg": 472257, "15 ...
创建时间: 2022-11-19 07:48:01 大小:8.76 MB 文件数量:23 热度:3 最近下载:2025-10-17 06:53:02